createdAt,value
2018-08-09T00:00:27.019Z,99462.69
2018-08-09T00:02:02.492Z,99455.94
2018-08-09T00:03:38.021Z,99457.64
2018-08-09T00:05:24.319Z,99454.83
2018-08-09T00:06:59.794Z,99450.89
2018-08-09T00:08:35.331Z,99451.20
2018-08-09T00:10:10.867Z,99449.12
2018-08-09T00:11:46.330Z,99458.92
2018-08-09T00:13:21.816Z,99452.31
2018-08-09T00:14:57.307Z,99452.51
2018-08-09T00:16:32.823Z,99449.74
2018-08-09T00:18:08.405Z,99452.20
2018-08-09T00:19:43.958Z,99455.79
2018-08-09T00:21:19.524Z,99453.96
2018-08-09T00:22:55.020Z,99454.73
2018-08-09T00:24:30.517Z,99454.80
2018-08-09T00:26:06.377Z,99455.14
2018-08-09T00:27:41.869Z,99461.08
2018-08-09T00:29:17.324Z,99458.70
2018-08-09T00:30:52.823Z,99468.69
2018-08-09T00:32:28.376Z,99459.50
2018-08-09T00:34:03.887Z,99466.23
2018-08-09T00:35:39.357Z,99458.59
2018-08-09T00:37:14.838Z,99458.79
2018-08-09T00:38:50.397Z,99460.19
2018-08-09T00:40:25.879Z,99468.41
2018-08-09T00:42:01.344Z,99465.11
2018-08-09T00:43:36.883Z,99464.84
2018-08-09T00:45:12.326Z,99457.78
2018-08-09T00:46:47.812Z,99462.50
2018-08-09T00:48:23.368Z,99461.30
2018-08-09T00:49:58.879Z,99464.41
2018-08-09T00:51:34.379Z,99459.28
2018-08-09T00:53:09.814Z,99455.85
2018-08-09T00:54:45.316Z,99457.33
2018-08-09T00:56:20.825Z,99460.37
2018-08-09T00:57:56.293Z,99461.75
2018-08-09T00:59:31.857Z,99458.50
2018-08-09T01:01:07.316Z,99459.78
2018-08-09T01:02:42.780Z,99460.50
2018-08-09T01:04:18.312Z,99463.05
2018-08-09T01:05:53.782Z,99456.40
2018-08-09T01:07:29.276Z,99460.17
2018-08-09T01:09:07.928Z,99462.35
2018-08-09T01:10:43.427Z,99462.24
2018-08-09T01:12:19.400Z,99460.17
2018-08-09T01:13:54.877Z,99460.68
2018-08-09T01:15:30.362Z,99461.70
2018-08-09T01:17:05.835Z,99466.50
2018-08-09T01:18:41.332Z,99466.16
2018-08-09T01:20:16.919Z,99463.70
2018-08-09T01:21:52.419Z,99463.06
2018-08-09T01:23:27.859Z,99465.17
2018-08-09T01:25:03.389Z,99461.44
2018-08-09T01:26:38.907Z,99464.07
2018-08-09T01:28:14.385Z,99465.06
2018-08-09T01:29:49.907Z,99463.64
2018-08-09T01:31:32.284Z,99460.16
2018-08-09T01:33:07.782Z,99459.27
2018-08-09T01:34:43.278Z,99459.09
2018-08-09T01:36:19.359Z,99450.30
2018-08-09T01:37:54.887Z,99461.84
2018-08-09T01:39:30.371Z,99462.15
2018-08-09T01:41:05.816Z,99467.80
2018-08-09T01:42:52.741Z,99467.55
2018-08-09T01:44:28.278Z,99468.27
2018-08-09T01:46:03.773Z,99447.22
2018-08-09T01:47:39.338Z,99470.23
2018-08-09T01:49:14.815Z,99466.29
2018-08-09T01:50:50.268Z,99466.87
2018-08-09T01:52:25.724Z,99463.61
2018-08-09T01:54:01.229Z,99471.05
2018-08-09T01:55:36.670Z,99477.56
2018-08-09T01:57:12.150Z,99477.30
2018-08-09T01:58:48.175Z,99482.57
2018-08-09T02:00:23.612Z,99475.95
2018-08-09T02:01:59.095Z,99485.59
2018-08-09T02:03:34.599Z,99478.55
2018-08-09T02:05:10.645Z,99479.28
2018-08-09T02:06:46.591Z,99481.91
2018-08-09T02:08:22.037Z,99475.95
2018-08-09T02:09:57.499Z,99486.12
2018-08-09T02:11:33.017Z,99472.22
2018-08-09T02:13:08.580Z,99479.25
2018-08-09T02:14:44.019Z,99471.97
2018-08-09T02:16:20.472Z,99475.43
2018-08-09T02:17:56.231Z,99482.00
2018-08-09T02:19:31.778Z,99476.89
2018-08-09T02:21:08.235Z,99474.31
2018-08-09T02:22:43.760Z,99467.83
2018-08-09T02:24:19.388Z,99468.03
2018-08-09T02:25:55.539Z,99470.21
2018-08-09T02:27:32.658Z,99468.28
2018-08-09T02:29:08.398Z,99476.20
2018-08-09T02:30:43.880Z,99473.81
2018-08-09T02:32:19.363Z,99478.02
2018-08-09T02:33:54.803Z,99478.55
2018-08-09T02:35:30.335Z,99480.78
2018-08-09T02:37:05.794Z,99445.78
2018-08-09T02:38:41.314Z,99481.17
2018-08-09T02:40:17.065Z,99471.50
2018-08-09T02:41:52.500Z,99479.41
2018-08-09T02:43:28.000Z,99478.90
2018-08-09T02:45:03.493Z,99480.04
2018-08-09T02:46:39.085Z,99484.63
2018-08-09T02:48:14.610Z,99481.02
2018-08-09T02:49:50.059Z,99483.51
2018-08-09T02:51:25.601Z,99483.34
2018-08-09T02:53:01.134Z,99479.94
2018-08-09T02:54:36.603Z,99488.13
2018-08-09T02:56:12.080Z,99483.47
2018-08-09T02:57:47.553Z,99478.57
2018-08-09T02:59:23.079Z,99487.73
2018-08-09T03:00:58.529Z,99484.59
2018-08-09T03:02:34.000Z,99493.79
2018-08-09T03:04:09.493Z,99488.50
2018-08-09T03:05:44.962Z,99497.70
2018-08-09T03:07:20.484Z,99499.73
2018-08-09T03:08:55.970Z,99500.47
2018-08-09T03:10:31.488Z,99497.70
2018-08-09T03:12:07.026Z,99498.42
2018-08-09T03:13:42.556Z,99499.81
2018-08-09T03:15:18.227Z,99502.69
2018-08-09T03:16:53.736Z,99497.03
2018-08-09T03:18:29.217Z,99496.89
2018-08-09T03:20:04.696Z,99495.92
2018-08-09T03:21:40.213Z,99489.93
2018-08-09T03:23:15.722Z,99489.80
2018-08-09T03:24:51.258Z,99488.72
2018-08-09T03:26:26.732Z,99487.94
2018-08-09T03:28:02.198Z,99484.48
2018-08-09T03:29:37.646Z,99490.97
2018-08-09T03:31:13.151Z,99489.30
2018-08-09T03:32:48.606Z,99485.27
2018-08-09T03:34:24.675Z,99484.20
2018-08-09T03:36:00.196Z,99482.30
2018-08-09T03:37:35.692Z,99478.52
2018-08-09T03:39:12.336Z,99481.63
2018-08-09T03:40:47.825Z,99483.79
2018-08-09T03:42:23.329Z,99481.74
2018-08-09T03:43:59.377Z,99484.09
2018-08-09T03:45:34.900Z,99479.35
2018-08-09T03:47:10.408Z,99479.73
2018-08-09T03:48:45.879Z,99476.72
2018-08-09T03:50:21.423Z,99480.63
2018-08-09T03:51:56.955Z,99476.30
2018-08-09T03:53:32.477Z,99480.70
2018-08-09T03:55:07.935Z,99485.27
2018-08-09T03:56:43.486Z,99484.86
2018-08-09T03:58:19.057Z,99486.64
2018-08-09T03:59:54.468Z,99489.80
2018-08-09T04:01:29.977Z,99489.89
2018-08-09T04:03:05.708Z,99486.94
2018-08-09T04:04:41.129Z,99485.05
2018-08-09T04:06:16.595Z,99488.85
2018-08-09T04:07:52.088Z,99489.30
2018-08-09T04:09:27.572Z,99481.66
2018-08-09T04:11:03.055Z,99477.16
2018-08-09T04:12:38.563Z,99476.95
2018-08-09T04:14:14.080Z,99476.58
2018-08-09T04:15:49.632Z,99477.95
2018-08-09T04:17:25.141Z,99486.02
2018-08-09T04:19:00.700Z,99481.58
2018-08-09T04:20:37.009Z,99483.17
2018-08-09T04:22:12.465Z,99486.02
2018-08-09T04:23:48.005Z,99491.95
2018-08-09T04:25:23.569Z,99482.92
2018-08-09T04:26:58.995Z,99490.03
2018-08-09T04:28:34.499Z,99492.59
2018-08-09T04:30:11.039Z,99495.02
2018-08-09T04:31:46.526Z,99494.88
2018-08-09T04:33:21.993Z,99493.67
2018-08-09T04:34:57.512Z,99500.88
2018-08-09T04:36:33.136Z,99497.09
2018-08-09T04:38:08.617Z,99502.91
2018-08-09T04:39:44.324Z,99497.94
2018-08-09T04:41:20.198Z,99498.25
2018-08-09T04:42:55.685Z,99495.77
2018-08-09T04:44:31.201Z,99499.95
2018-08-09T04:46:06.948Z,99502.23
2018-08-09T04:47:42.462Z,99507.16
2018-08-09T04:49:18.015Z,99516.19
2018-08-09T04:50:53.441Z,99514.31
2018-08-09T04:52:28.920Z,99506.77
2018-08-09T04:54:04.428Z,99509.40
2018-08-09T04:55:39.961Z,99513.02
2018-08-09T04:57:15.499Z,99507.60
2018-08-09T04:58:51.048Z,99508.72
2018-08-09T05:00:26.669Z,99511.77
2018-08-09T05:02:02.125Z,99509.94
2018-08-09T05:03:37.568Z,99512.84
2018-08-09T05:05:13.131Z,99513.66
2018-08-09T05:06:48.626Z,99516.09
2018-08-09T05:08:24.144Z,99517.23
2018-08-09T05:10:04.883Z,99509.53
2018-08-09T05:11:41.060Z,99519.78
2018-08-09T05:13:16.526Z,99514.51
2018-08-09T05:14:51.980Z,99514.20
2018-08-09T05:16:28.515Z,99506.33
2018-08-09T05:18:04.057Z,99513.27
2018-08-09T05:19:40.436Z,99511.95
2018-08-09T05:21:15.969Z,99508.59
2018-08-09T05:22:51.480Z,99505.53
2018-08-09T05:24:27.017Z,99503.97
2018-08-09T05:26:16.998Z,99505.13
2018-08-09T05:27:52.476Z,99503.70
2018-08-09T05:29:28.010Z,99495.60
2018-08-09T05:31:03.538Z,99499.63
2018-08-09T05:32:39.051Z,99495.51
2018-08-09T05:34:14.536Z,99489.33
2018-08-09T05:35:50.080Z,99497.33
2018-08-09T05:37:25.533Z,99498.09
2018-08-09T05:39:00.996Z,99494.24
2018-08-09T05:40:36.511Z,99498.62
2018-08-09T05:42:12.096Z,99492.36
2018-08-09T05:43:48.129Z,99490.83
2018-08-09T05:45:23.652Z,99487.98
2018-08-09T05:46:59.462Z,99486.53
2018-08-09T05:48:35.115Z,99495.45
2018-08-09T05:50:10.693Z,99493.47
2018-08-09T05:51:46.294Z,99488.42
2018-08-09T05:53:21.752Z,99487.30
2018-08-09T05:54:57.227Z,99484.80
2018-08-09T05:56:33.117Z,99486.19
2018-08-09T05:58:08.615Z,99488.98
2018-08-09T05:59:45.389Z,99485.97
2018-08-09T06:01:20.877Z,99485.27
2018-08-09T06:02:56.315Z,99483.57
2018-08-09T06:04:31.788Z,99481.83
2018-08-09T06:06:07.262Z,99492.83
2018-08-09T06:07:42.771Z,99489.38
2018-08-09T06:09:18.278Z,99490.48
2018-08-09T06:10:54.704Z,99493.09
2018-08-09T06:12:31.268Z,99486.70
2018-08-09T06:14:07.154Z,99490.37
2018-08-09T06:15:42.614Z,99495.83
2018-08-09T06:17:18.158Z,99488.34
2018-08-09T06:18:53.738Z,99493.80
2018-08-09T06:20:29.317Z,99486.84
2018-08-09T06:22:04.893Z,99490.04
2018-08-09T06:23:40.458Z,99491.83
2018-08-09T06:25:15.997Z,99491.39
2018-08-09T06:26:51.475Z,99492.45
2018-08-09T06:28:27.016Z,99494.89
2018-08-09T06:30:02.583Z,99497.87
2018-08-09T06:31:38.191Z,99495.69
2018-08-09T06:33:13.691Z,99498.80
2018-08-09T06:34:52.171Z,99497.14
2018-08-09T06:36:27.630Z,99498.73
2018-08-09T06:38:03.182Z,99492.99
2018-08-09T06:39:38.657Z,99493.16
2018-08-09T06:41:14.196Z,99493.11
2018-08-09T06:42:49.736Z,99492.53
2018-08-09T06:44:25.223Z,99493.50
2018-08-09T06:46:00.754Z,99491.06
2018-08-09T06:47:36.312Z,99488.08
2018-08-09T06:49:11.731Z,99493.66
2018-08-09T06:50:47.228Z,99497.41
2018-08-09T06:52:22.798Z,99490.98
2018-08-09T06:53:58.275Z,99495.17
2018-08-09T06:55:36.816Z,99488.80
2018-08-09T06:57:12.325Z,99494.40
2018-08-09T06:58:47.898Z,99495.80
2018-08-09T07:00:23.434Z,99493.53
2018-08-09T07:01:58.926Z,99493.64
2018-08-09T07:03:34.466Z,99491.19
2018-08-09T07:05:10.077Z,99492.48
2018-08-09T07:06:46.173Z,99490.71
2018-08-09T07:08:21.703Z,99483.67
2018-08-09T07:09:57.273Z,99485.21
2018-08-09T07:11:32.719Z,99478.55
2018-08-09T07:13:08.209Z,99474.14
2018-08-09T07:14:43.845Z,99475.73
2018-08-09T07:16:19.405Z,99473.19
2018-08-09T07:17:54.923Z,99472.02
2018-08-09T07:19:30.473Z,99473.38
2018-08-09T07:21:06.240Z,99471.91
2018-08-09T07:22:42.137Z,99473.97
2018-08-09T07:24:17.863Z,99474.42
2018-08-09T07:25:53.390Z,99474.49
2018-08-09T07:27:28.925Z,99473.73
2018-08-09T07:29:04.450Z,99473.89
2018-08-09T07:30:39.918Z,99466.43
2018-08-09T07:32:18.432Z,99468.24
2018-08-09T07:33:54.041Z,99468.55
2018-08-09T07:35:29.520Z,99466.14
2018-08-09T07:37:05.071Z,99468.03
2018-08-09T07:38:42.872Z,99466.98
2018-08-09T07:40:20.084Z,99463.02
2018-08-09T07:41:55.558Z,99462.42
2018-08-09T07:43:31.220Z,99467.75
2018-08-09T07:45:08.578Z,99457.16
2018-08-09T07:46:44.139Z,99457.67
2018-08-09T07:48:19.705Z,99460.87
2018-08-09T07:49:55.181Z,99454.11
2018-08-09T07:51:30.722Z,99449.00
2018-08-09T07:53:06.235Z,99450.39
2018-08-09T07:54:42.865Z,99443.50
2018-08-09T07:56:18.475Z,99449.34
2018-08-09T07:57:54.006Z,99441.56
2018-08-09T07:59:29.561Z,99443.64
2018-08-09T08:01:05.097Z,99446.63
2018-08-09T08:02:40.997Z,99442.45
2018-08-09T08:04:16.798Z,99434.17
2018-08-09T08:05:52.599Z,99437.74
2018-08-09T08:07:28.156Z,99437.02
2018-08-09T08:09:04.691Z,99436.30
2018-08-09T08:10:40.319Z,99435.84
2018-08-09T08:12:15.840Z,99437.40
2018-08-09T08:13:51.384Z,99430.55
2018-08-09T08:15:26.928Z,99428.53
2018-08-09T08:17:02.540Z,99427.58
2018-08-09T08:18:38.060Z,99430.70
2018-08-09T08:20:13.547Z,99424.63
2018-08-09T08:21:49.092Z,99426.36
2018-08-09T08:23:24.628Z,99423.67
2018-08-09T08:25:00.158Z,99423.46
2018-08-09T08:26:35.797Z,99425.89
2018-08-09T08:28:11.311Z,99418.31
2018-08-09T08:29:46.893Z,99412.44
2018-08-09T08:31:22.469Z,99381.15
2018-08-09T08:32:57.973Z,99403.86
2018-08-09T08:34:33.522Z,99412.88
2018-08-09T08:36:09.050Z,99399.72
2018-08-09T08:37:44.596Z,99399.88
2018-08-09T08:39:20.155Z,99405.21
2018-08-09T08:40:55.711Z,99397.03
2018-08-09T08:42:36.996Z,99403.31
2018-08-09T08:44:20.252Z,99390.45
2018-08-09T08:46:00.859Z,99390.77
2018-08-09T08:47:36.345Z,99388.58
2018-08-09T08:49:11.802Z,99381.46
2018-08-09T08:50:47.318Z,99385.00
2018-08-09T08:52:22.838Z,99382.04
2018-08-09T08:53:58.346Z,99379.52
2018-08-09T08:55:33.824Z,99382.00
2018-08-09T08:57:09.373Z,99375.21
2018-08-09T08:58:44.847Z,99373.84
2018-08-09T09:00:20.337Z,99370.25
2018-08-09T09:01:55.860Z,99374.64
2018-08-09T09:03:32.095Z,99368.06
2018-08-09T09:05:09.659Z,99367.84
2018-08-09T09:06:45.062Z,99363.16
2018-08-09T09:08:20.559Z,99361.19
2018-08-09T09:09:56.093Z,99350.86
2018-08-09T09:11:32.659Z,99354.64
2018-08-09T09:13:08.142Z,99356.06
2018-08-09T09:14:43.681Z,99358.78
2018-08-09T09:16:19.349Z,99356.88
2018-08-09T09:17:54.874Z,99358.28
2018-08-09T09:19:30.325Z,99350.31
2018-08-09T09:21:05.921Z,99355.48
2018-08-09T09:22:42.103Z,99343.47
2018-08-09T09:24:17.640Z,99344.28
2018-08-09T09:25:53.108Z,99335.24
2018-08-09T09:27:28.585Z,99333.36
2018-08-09T09:29:04.095Z,99336.73
2018-08-09T09:30:39.602Z,99337.02
2018-08-09T09:32:15.105Z,99329.38
2018-08-09T09:33:50.563Z,99323.08
2018-08-09T09:35:26.024Z,99325.66
2018-08-09T09:37:01.504Z,99324.80
2018-08-09T09:38:36.971Z,99323.25
2018-08-09T09:40:12.466Z,99321.23
2018-08-09T09:41:47.939Z,99315.66
2018-08-09T09:43:23.383Z,99311.38
2018-08-09T09:44:58.868Z,99308.86
2018-08-09T09:46:34.479Z,99307.89
2018-08-09T09:48:09.938Z,99305.08
2018-08-09T09:49:45.395Z,99301.24
2018-08-09T09:51:20.848Z,99298.70
2018-08-09T09:52:56.368Z,99299.47
2018-08-09T09:54:31.839Z,99299.35
2018-08-09T09:56:07.385Z,99267.09
2018-08-09T09:57:42.839Z,99294.58
2018-08-09T09:59:18.292Z,99291.01
2018-08-09T10:00:59.287Z,99290.88
2018-08-09T10:02:34.794Z,99286.95
2018-08-09T10:04:10.285Z,99288.44
2018-08-09T10:05:45.768Z,99290.84
2018-08-09T10:07:21.362Z,99281.27
2018-08-09T10:08:56.773Z,99278.77
2018-08-09T10:10:32.277Z,99280.31
2018-08-09T10:12:07.752Z,99280.27
2018-08-09T10:13:43.217Z,99280.12
2018-08-09T10:15:18.697Z,99268.92
2018-08-09T10:16:54.250Z,99259.16
2018-08-09T10:18:29.716Z,99264.16
2018-08-09T10:20:05.880Z,99258.98
2018-08-09T10:21:41.355Z,99254.13
2018-08-09T10:23:16.831Z,99248.36
2018-08-09T10:24:52.353Z,99240.27
2018-08-09T10:26:27.893Z,99239.42
2018-08-09T10:28:03.364Z,99246.81
2018-08-09T10:29:38.839Z,99235.06
2018-08-09T10:31:14.370Z,99241.90
2018-08-09T10:32:49.907Z,99234.79
2018-08-09T10:34:25.356Z,99230.69
2018-08-09T10:36:00.923Z,99236.42
2018-08-09T10:37:36.405Z,99242.98
2018-08-09T10:39:12.498Z,99233.42
2018-08-09T10:40:47.968Z,99227.39
2018-08-09T10:42:23.490Z,99217.82
2018-08-09T10:43:58.965Z,99216.98
2018-08-09T10:45:34.423Z,99203.09
2018-08-09T10:47:09.945Z,99208.20
2018-08-09T10:48:45.441Z,99210.18
2018-08-09T10:50:21.223Z,99210.98
2018-08-09T10:51:56.713Z,99204.92
2018-08-09T10:53:32.186Z,99199.95
2018-08-09T10:55:07.800Z,99190.14
2018-08-09T10:56:43.318Z,99189.81
2018-08-09T10:58:18.853Z,99183.30
2018-08-09T10:59:55.543Z,99186.27
2018-08-09T11:01:30.993Z,99186.23
2018-08-09T11:03:06.514Z,99183.68
2018-08-09T11:04:41.990Z,99176.92
2018-08-09T11:06:17.493Z,99177.44
2018-08-09T11:07:53.018Z,99169.09
2018-08-09T11:09:28.540Z,99173.20
2018-08-09T11:11:08.248Z,99168.05
2018-08-09T11:12:43.696Z,99166.58
2018-08-09T11:14:19.158Z,99164.34
2018-08-09T11:15:54.698Z,99159.95
2018-08-09T11:17:30.190Z,99155.11
2018-08-09T11:19:06.079Z,99157.44
2018-08-09T11:20:41.562Z,99153.30
2018-08-09T11:22:17.077Z,99146.04
2018-08-09T11:23:52.620Z,99147.66
2018-08-09T11:25:28.188Z,99136.31
2018-08-09T11:27:03.699Z,99132.27
2018-08-09T11:28:39.218Z,99143.55
2018-08-09T11:30:14.741Z,99140.20
2018-08-09T11:31:50.206Z,99142.55
2018-08-09T11:33:25.793Z,99132.63
2018-08-09T11:35:01.273Z,99129.03
2018-08-09T11:36:36.737Z,99118.77
2018-08-09T11:38:12.282Z,99122.42
2018-08-09T11:39:47.811Z,99120.41
2018-08-09T11:41:23.299Z,99114.88
2018-08-09T11:42:58.829Z,99111.50
2018-08-09T11:44:34.298Z,99109.36
2018-08-09T11:46:09.811Z,99106.38
2018-08-09T11:47:45.336Z,99105.77
2018-08-09T11:49:20.899Z,99099.52
2018-08-09T11:50:56.362Z,99101.33
2018-08-09T11:52:31.857Z,99096.70
2018-08-09T11:54:07.464Z,99090.82
2018-08-09T11:55:42.951Z,99098.11
2018-08-09T11:57:18.496Z,99101.05
2018-08-09T11:58:53.973Z,99089.17
2018-08-09T12:00:29.421Z,99088.84
2018-08-09T12:02:04.964Z,99088.48
2018-08-09T12:03:40.448Z,99087.59
2018-08-09T12:05:15.987Z,99087.05
2018-08-09T12:06:51.537Z,99076.03
2018-08-09T12:08:27.029Z,99074.18
2018-08-09T12:10:02.553Z,99075.14
2018-08-09T12:11:38.732Z,99070.80
2018-08-09T12:13:14.242Z,99061.24
2018-08-09T12:14:49.770Z,99058.35
2018-08-09T12:16:25.444Z,99056.09
2018-08-09T12:18:00.953Z,99048.03
2018-08-09T12:19:36.446Z,99057.31
2018-08-09T12:21:11.954Z,99059.56
2018-08-09T12:22:47.505Z,99058.03
2018-08-09T12:24:23.045Z,99051.16
2018-08-09T12:25:58.514Z,99049.83
2018-08-09T12:27:34.118Z,99039.80
2018-08-09T12:29:09.737Z,99041.33
2018-08-09T12:30:45.256Z,99044.27
2018-08-09T12:32:20.728Z,99035.55
2018-08-09T12:33:56.323Z,99037.02
2018-08-09T12:35:31.872Z,99031.77
2018-08-09T12:37:12.569Z,99030.51
2018-08-09T12:38:53.261Z,99026.03
2018-08-09T12:40:33.852Z,99037.80
2018-08-09T12:42:10.656Z,99025.73
2018-08-09T12:43:47.166Z,99022.78
2018-08-09T12:45:22.698Z,99028.33
2018-08-09T12:46:58.189Z,99018.13
2018-08-09T12:48:33.699Z,99018.92
2018-08-09T12:50:11.691Z,99006.92
2018-08-09T12:51:47.407Z,99014.69
2018-08-09T12:53:22.960Z,99006.33
2018-08-09T12:54:58.592Z,99002.27
2018-08-09T12:56:34.251Z,98997.66
2018-08-09T12:58:09.942Z,99006.78
2018-08-09T12:59:45.892Z,99001.83
2018-08-09T13:01:21.473Z,98997.86
2018-08-09T13:02:56.984Z,99000.84
2018-08-09T13:04:32.596Z,98996.62
2018-08-09T13:06:08.153Z,98991.16
2018-08-09T13:07:43.860Z,98985.34
2018-08-09T13:09:22.129Z,98984.34
2018-08-09T13:10:57.822Z,98976.66
2018-08-09T13:12:33.328Z,98970.29
2018-08-09T13:14:08.954Z,98963.73
2018-08-09T13:15:45.322Z,98967.28
2018-08-09T13:17:20.913Z,98965.45
2018-08-09T13:18:56.524Z,98968.92
2018-08-09T13:20:32.016Z,98965.25
2018-08-09T13:22:08.933Z,98962.32
2018-08-09T13:23:44.568Z,98965.52
2018-08-09T13:25:20.068Z,98964.14
2018-08-09T13:26:55.688Z,98969.42
2018-08-09T13:28:31.210Z,98959.96
2018-08-09T13:30:09.869Z,98957.36
2018-08-09T13:31:45.326Z,98952.88
2018-08-09T13:33:20.847Z,98946.57
2018-08-09T13:34:56.478Z,98938.73
2018-08-09T13:36:31.987Z,98937.06
2018-08-09T13:38:07.590Z,98933.96
2018-08-09T13:39:43.142Z,98929.14
2018-08-09T13:41:18.674Z,98928.64
2018-08-09T13:42:54.217Z,98928.81
2018-08-09T13:44:29.691Z,98928.72
2018-08-09T13:46:05.207Z,98925.41
2018-08-09T13:47:40.909Z,98924.75
2018-08-09T13:49:16.418Z,98918.20
2018-08-09T13:50:51.972Z,98910.72
2018-08-09T13:52:27.475Z,98910.30
2018-08-09T13:54:02.990Z,98908.12
2018-08-09T13:55:38.858Z,98903.59
2018-08-09T13:57:14.389Z,98901.88
2018-08-09T13:58:49.897Z,98902.59
2018-08-09T14:00:25.444Z,98897.16
2018-08-09T14:02:00.967Z,98898.88
2018-08-09T14:03:36.440Z,98897.06
2018-08-09T14:05:11.925Z,98892.78
2018-08-09T14:06:47.441Z,98896.16
2018-08-09T14:08:22.894Z,98892.50
2018-08-09T14:09:58.348Z,98880.75
2018-08-09T14:11:33.818Z,98875.41
2018-08-09T14:13:09.358Z,98883.95
2018-08-09T14:14:44.822Z,98872.47
2018-08-09T14:16:20.341Z,98871.02
2018-08-09T14:17:55.837Z,98867.69
2018-08-09T14:19:31.337Z,98863.92
2018-08-09T14:21:07.983Z,98866.11
2018-08-09T14:22:43.935Z,98858.05
2018-08-09T14:24:19.450Z,98866.11
2018-08-09T14:25:54.984Z,98866.11
2018-08-09T14:27:30.804Z,98853.99
2018-08-09T14:29:06.987Z,98846.05
2018-08-09T14:30:42.469Z,98855.22
2018-08-09T14:32:18.538Z,98850.77
2018-08-09T14:33:54.027Z,98848.86
2018-08-09T14:35:29.534Z,98853.94
2018-08-09T14:37:05.256Z,98855.94
2018-08-09T14:38:40.753Z,98851.59
2018-08-09T14:40:16.489Z,98852.90
2018-08-09T14:41:51.995Z,98849.52
2018-08-09T14:43:27.465Z,98853.41
2018-08-09T14:45:02.993Z,98851.78
2018-08-09T14:46:38.467Z,98842.60
2018-08-09T14:48:13.937Z,98842.37
2018-08-09T14:49:49.433Z,98845.02
2018-08-09T14:51:24.920Z,98839.59
2018-08-09T14:53:00.442Z,98844.64
2018-08-09T14:54:35.907Z,98840.55
2018-08-09T14:56:11.368Z,98839.88
2018-08-09T14:57:46.842Z,98839.09
2018-08-09T14:59:22.320Z,98836.53
2018-08-09T15:00:57.836Z,98832.41
2018-08-09T15:02:33.387Z,98828.87
2018-08-09T15:04:08.838Z,98823.91
2018-08-09T15:05:44.363Z,98831.67
2018-08-09T15:07:19.808Z,98832.91
2018-08-09T15:08:55.370Z,98832.06
2018-08-09T15:10:30.822Z,98829.54
2018-08-09T15:12:06.255Z,98839.84
2018-08-09T15:13:42.096Z,98835.48
2018-08-09T15:15:17.632Z,98828.55
2018-08-09T15:16:53.089Z,98826.98
2018-08-09T15:18:28.601Z,98829.17
2018-08-09T15:20:05.829Z,98837.91
2018-08-09T15:21:41.372Z,98835.34
2018-08-09T15:23:16.855Z,98828.23
2018-08-09T15:24:52.310Z,98827.53
2018-08-09T15:26:27.746Z,98827.05
2018-08-09T15:28:03.238Z,98832.67
2018-08-09T15:29:38.781Z,98840.92
2018-08-09T15:31:14.264Z,98849.48
2018-08-09T15:32:49.780Z,98838.73
2018-08-09T15:34:25.288Z,98832.47
2018-08-09T15:36:00.771Z,98835.60
2018-08-09T15:37:36.255Z,98830.23
2018-08-09T15:39:13.272Z,98833.23
2018-08-09T15:40:48.772Z,98832.61
2018-08-09T15:42:24.228Z,98826.39
2018-08-09T15:43:59.719Z,98827.48
2018-08-09T15:45:35.208Z,98828.59
2018-08-09T15:47:10.788Z,98830.08
2018-08-09T15:48:46.268Z,98826.28
2018-08-09T15:50:21.732Z,98827.25
2018-08-09T15:51:57.179Z,98825.94
2018-08-09T15:53:32.673Z,98822.42
2018-08-09T15:55:09.460Z,98828.55
2018-08-09T15:56:44.983Z,98825.70
2018-08-09T15:58:20.440Z,98835.52
2018-08-09T15:59:55.992Z,98831.17
2018-08-09T16:01:31.496Z,98832.21
2018-08-09T16:03:06.969Z,98822.27
2018-08-09T16:04:42.428Z,98832.09
2018-08-09T16:06:17.951Z,98820.37
2018-08-09T16:07:53.440Z,98828.11
2018-08-09T16:09:28.927Z,98821.56
2018-08-09T16:11:04.463Z,98822.41
2018-08-09T16:12:40.246Z,98823.19
2018-08-09T16:14:15.757Z,98820.63
2018-08-09T16:15:51.258Z,98814.92
2018-08-09T16:17:26.765Z,98823.22
2018-08-09T16:19:02.315Z,98817.72
2018-08-09T16:20:37.844Z,98821.81
2018-08-09T16:22:13.365Z,98826.28
2018-08-09T16:23:48.837Z,98820.20
2018-08-09T16:25:24.356Z,98823.62
2018-08-09T16:26:59.942Z,98816.81
2018-08-09T16:28:35.496Z,98826.03
2018-08-09T16:30:17.033Z,98817.59
2018-08-09T16:31:52.558Z,98816.03
2018-08-09T16:33:28.020Z,98820.37
2018-08-09T16:35:03.539Z,98825.43
2018-08-09T16:36:39.048Z,98822.06
2018-08-09T16:38:14.554Z,98823.09
2018-08-09T16:39:50.061Z,98823.27
2018-08-09T16:41:25.591Z,98815.78
2018-08-09T16:43:01.055Z,98819.33
2018-08-09T16:44:36.568Z,98813.23
2018-08-09T16:46:12.102Z,98816.27
2018-08-09T16:47:47.850Z,98814.13
2018-08-09T16:49:23.343Z,98815.86
2018-08-09T16:50:58.977Z,98813.67
2018-08-09T16:52:34.510Z,98814.41
2018-08-09T16:54:09.978Z,98819.07
2018-08-09T16:55:45.429Z,98811.91
2018-08-09T16:57:20.959Z,98814.84
2018-08-09T16:58:56.658Z,98816.62
2018-08-09T17:00:32.960Z,98821.36
2018-08-09T17:02:08.456Z,98817.67
2018-08-09T17:03:44.013Z,98821.13
2018-08-09T17:05:20.560Z,98830.00
2018-08-09T17:06:56.126Z,98833.70
2018-08-09T17:08:31.628Z,98841.70
2018-08-09T17:10:07.988Z,98844.34
2018-08-09T17:11:45.655Z,98839.59
2018-08-09T17:13:21.170Z,98840.17
2018-08-09T17:14:57.810Z,98838.42
2018-08-09T17:16:33.404Z,98843.11
2018-08-09T17:18:08.906Z,98836.44
2018-08-09T17:19:44.608Z,98838.91
2018-08-09T17:21:20.123Z,98840.67
2018-08-09T17:22:55.778Z,98839.12
2018-08-09T17:24:31.433Z,98843.63
2018-08-09T17:26:07.791Z,98842.87
2018-08-09T17:27:44.635Z,98836.91
2018-08-09T17:29:20.134Z,98836.27
2018-08-09T17:30:55.663Z,98839.91
2018-08-09T17:32:31.183Z,98840.84
2018-08-09T17:34:06.765Z,98839.42
2018-08-09T17:35:42.670Z,98843.19
2018-08-09T17:37:18.265Z,98846.05
2018-08-09T17:38:53.717Z,98849.41
2018-08-09T17:40:30.665Z,98862.02
2018-08-09T17:42:06.334Z,98866.27
2018-08-09T17:43:42.053Z,98886.45
2018-08-09T17:45:18.027Z,98928.58
2018-08-09T17:46:53.489Z,98957.64
2018-08-09T17:48:29.357Z,98971.03
2018-08-09T17:50:05.482Z,98988.44
2018-08-09T17:51:40.962Z,98985.06
2018-08-09T17:53:16.719Z,98978.86
2018-08-09T17:54:52.231Z,98994.13
2018-08-09T17:56:27.751Z,98996.61
2018-08-09T17:58:04.651Z,98999.59
2018-08-09T17:59:40.950Z,99002.63
2018-08-09T18:01:16.516Z,98997.70
2018-08-09T18:02:52.364Z,98998.78
2018-08-09T18:04:27.896Z,98987.06
2018-08-09T18:06:03.395Z,98984.62
2018-08-09T18:07:38.932Z,98990.56
2018-08-09T18:09:14.490Z,98994.44
2018-08-09T18:10:49.941Z,98984.58
2018-08-09T18:12:25.400Z,98991.14
2018-08-09T18:14:00.939Z,98989.21
2018-08-09T18:15:36.405Z,98995.52
2018-08-09T18:17:12.015Z,98996.05
2018-08-09T18:18:47.570Z,98999.61
2018-08-09T18:20:27.000Z,99005.31
2018-08-09T18:22:02.539Z,99008.56
2018-08-09T18:23:38.080Z,99015.66
2018-08-09T18:25:14.340Z,99017.28
2018-08-09T18:26:49.849Z,99019.14
2018-08-09T18:28:25.319Z,99018.28
2018-08-09T18:30:00.896Z,99004.81
2018-08-09T18:31:36.356Z,99001.73
2018-08-09T18:33:11.856Z,99007.34
2018-08-09T18:34:47.342Z,99009.33
2018-08-09T18:36:23.024Z,99006.99
2018-08-09T18:37:58.505Z,99002.60
2018-08-09T18:39:34.093Z,99005.59
2018-08-09T18:41:09.740Z,99010.97
2018-08-09T18:42:45.457Z,99003.27
2018-08-09T18:44:22.009Z,99007.02